YADID23 LLBG-LLBG
Flight info
| Callsign | YADID23 |
|---|---|
| Flight time | N/A |
| Altitude | 4150 |
| Route | LLBG DCT LLHS TACAN 7NM ORBITS CALIBRATION ORBITS AND ILS LANDING DCT GANEI AM |
| Aircraft | C510/L-V/N |
Departure
| Time | 2026-05-05 19:46 |
|---|---|
| Airport | Ben Gurion International Airport (LLBG) |
Arrival
| Time | N/A |
|---|---|
| Airport | Ben Gurion International Airport (LLBG) |
| Time | Latitude | Longitude | Altitude | Speed | Heading |
|---|---|---|---|---|---|
| 2026-05-05 19:36 | 31.99361 | 34.90109 | 115 ft | 0 kts | 91° |
| 2026-05-05 19:38 | 31.99362 | 34.90018 | 114 ft | 0 kts | 107° |
| 2026-05-05 19:38 | 31.99361 | 34.90018 | 115 ft | 0 kts | 338° |
| 2026-05-05 19:38 | 31.99364 | 34.90017 | 115 ft | 2 kts | 334° |
| 2026-05-05 19:39 | 31.99408 | 34.89991 | 115 ft | 12 kts | 333° |
| 2026-05-05 19:39 | 31.99482 | 34.89949 | 115 ft | 0 kts | 347° |
| 2026-05-05 19:40 | 31.99520 | 34.89938 | 115 ft | 7 kts | 346° |
| 2026-05-05 19:40 | 31.99597 | 34.89915 | 115 ft | 18 kts | 347° |
| 2026-05-05 19:40 | 31.99726 | 34.89856 | 115 ft | 23 kts | 333° |
| 2026-05-05 19:40 | 31.99872 | 34.89770 | 115 ft | 25 kts | 333° |
| 2026-05-05 19:41 | 32.00034 | 34.89672 | 115 ft | 27 kts | 334° |
| 2026-05-05 19:41 | 32.00207 | 34.89557 | 115 ft | 30 kts | 312° |
| 2026-05-05 19:41 | 32.00321 | 34.89347 | 115 ft | 32 kts | 301° |
| 2026-05-05 19:41 | 32.00440 | 34.89115 | 113 ft | 34 kts | 300° |
| 2026-05-05 19:42 | 32.00560 | 34.88977 | 114 ft | 24 kts | 21° |
| 2026-05-05 19:42 | 32.00717 | 34.89079 | 116 ft | 28 kts | 29° |
| 2026-05-05 19:42 | 32.00892 | 34.89200 | 116 ft | 31 kts | 27° |
| 2026-05-05 19:42 | 32.01084 | 34.89323 | 116 ft | 33 kts | 28° |
| 2026-05-05 19:43 | 32.01279 | 34.89446 | 115 ft | 35 kts | 28° |
| 2026-05-05 19:43 | 32.01400 | 34.89524 | 115 ft | 36 kts | 28° |
| 2026-05-05 19:44 | 32.01589 | 34.89646 | 113 ft | 23 kts | 28° |
| 2026-05-05 19:44 | 32.01740 | 34.89747 | 114 ft | 27 kts | 30° |
| 2026-05-05 19:44 | 32.01842 | 34.89725 | 113 ft | 14 kts | 270° |
| 2026-05-05 19:44 | 32.01837 | 34.89686 | 114 ft | 0 kts | 262° |
| 2026-05-05 19:45 | 32.01805 | 34.89474 | 112 ft | 64 kts | 259° |
| 2026-05-05 19:45 | 32.01686 | 34.88715 | 158 ft | 119 kts | 263° |
| 2026-05-05 19:46 | 32.01521 | 34.87584 | 402 ft | 158 kts | 261° |
| 2026-05-05 19:46 | 32.01332 | 34.86215 | 707 ft | 187 kts | 263° |
| 2026-05-05 19:46 | 32.01147 | 34.84680 | 1049 ft | 207 kts | 263° |
| 2026-05-05 19:46 | 32.00948 | 34.82954 | 1576 ft | 217 kts | 263° |
| 2026-05-05 19:47 | 32.00638 | 34.81199 | 2171 ft | 225 kts | 244° |
| 2026-05-05 19:47 | 31.99332 | 34.80206 | 2726 ft | 237 kts | 190° |
| 2026-05-05 19:47 | 31.97776 | 34.80691 | 3551 ft | 234 kts | 148° |
| 2026-05-05 19:47 | 31.97058 | 34.81340 | 3921 ft | 237 kts | 142° |
| 2026-05-05 19:48 | 31.96317 | 34.82067 | 4119 ft | 249 kts | 141° |
| 2026-05-05 19:48 | 31.94756 | 34.83060 | 4094 ft | 267 kts | 173° |
| 2026-05-05 19:49 | 31.93702 | 34.83088 | 4119 ft | 269 kts | 185° |
| 2026-05-05 19:49 | 31.93323 | 34.83067 | 4173 ft | 265 kts | 185° |
| 2026-05-05 19:49 | 31.92020 | 34.82871 | 4006 ft | 256 kts | 195° |
| 2026-05-05 19:50 | 31.90959 | 34.82549 | 3977 ft | 247 kts | 199° |
| 2026-05-05 19:50 | 31.89458 | 34.81805 | 4090 ft | 226 kts | 217° |
| 2026-05-05 19:50 | 31.88183 | 34.80796 | 4095 ft | 221 kts | 211° |
| 2026-05-05 19:50 | 31.86841 | 34.79940 | 4106 ft | 223 kts | 212° |
| 2026-05-05 19:51 | 31.85474 | 34.79056 | 4110 ft | 225 kts | 211° |
| 2026-05-05 19:51 | 31.84062 | 34.78239 | 4104 ft | 228 kts | 208° |
| 2026-05-05 19:51 | 31.82657 | 34.77386 | 4102 ft | 227 kts | 212° |
| 2026-05-05 19:51 | 31.81259 | 34.76512 | 4107 ft | 228 kts | 210° |
| 2026-05-05 19:52 | 31.79848 | 34.75656 | 4108 ft | 228 kts | 210° |
| 2026-05-05 19:52 | 31.78450 | 34.74758 | 4105 ft | 227 kts | 215° |
| 2026-05-05 19:52 | 31.77307 | 34.73517 | 4103 ft | 223 kts | 234° |
| 2026-05-05 19:52 | 31.76195 | 34.72293 | 4097 ft | 227 kts | 213° |
| 2026-05-05 19:53 | 31.74699 | 34.71886 | 4092 ft | 217 kts | 179° |
| 2026-05-05 19:53 | 31.73353 | 34.72499 | 4087 ft | 206 kts | 142° |
| 2026-05-05 19:53 | 31.72613 | 34.73858 | 4089 ft | 199 kts | 103° |
| 2026-05-05 19:53 | 31.72715 | 34.75492 | 4093 ft | 208 kts | 66° |
| 2026-05-05 19:54 | 31.73641 | 34.76809 | 4091 ft | 212 kts | 30° |
| 2026-05-05 19:54 | 31.74957 | 34.77271 | 4088 ft | 203 kts | 356° |
| 2026-05-05 19:54 | 31.76246 | 34.76795 | 4090 ft | 185 kts | 324° |
| 2026-05-05 19:54 | 31.77071 | 34.75779 | 4086 ft | 166 kts | 296° |
| 2026-05-05 19:55 | 31.77256 | 34.74482 | 4088 ft | 164 kts | 267° |
| 2026-05-05 19:55 | 31.76735 | 34.73223 | 4087 ft | 183 kts | 229° |
| 2026-05-05 19:55 | 31.75539 | 34.72564 | 4092 ft | 203 kts | 191° |
| 2026-05-05 19:55 | 31.74132 | 34.72868 | 4089 ft | 218 kts | 155° |
| 2026-05-05 19:56 | 31.73023 | 34.74113 | 4093 ft | 228 kts | 120° |
| 2026-05-05 19:56 | 31.72658 | 34.75859 | 4086 ft | 214 kts | 85° |
| 2026-05-05 19:56 | 31.73151 | 34.77403 | 4089 ft | 197 kts | 48° |
| 2026-05-05 19:56 | 31.74301 | 34.78264 | 4090 ft | 197 kts | 10° |
| 2026-05-05 19:57 | 31.75608 | 34.78142 | 4090 ft | 187 kts | 334° |
| 2026-05-05 19:57 | 31.76536 | 34.77150 | 4091 ft | 180 kts | 303° |
| 2026-05-05 19:57 | 31.77005 | 34.75810 | 4087 ft | 178 kts | 281° |
| 2026-05-05 19:57 | 31.76829 | 34.74379 | 4087 ft | 181 kts | 250° |
| 2026-05-05 19:58 | 31.76046 | 34.73225 | 4083 ft | 187 kts | 218° |
| 2026-05-05 19:58 | 31.74826 | 34.72668 | 4086 ft | 193 kts | 190° |
| 2026-05-05 19:58 | 31.73508 | 34.72993 | 4088 ft | 200 kts | 152° |
| 2026-05-05 19:58 | 31.72587 | 34.74201 | 4092 ft | 202 kts | 114° |
| 2026-05-05 19:59 | 31.72453 | 34.75811 | 4091 ft | 200 kts | 75° |
| 2026-05-05 19:59 | 31.73152 | 34.77154 | 4090 ft | 192 kts | 36° |
| 2026-05-05 19:59 | 31.74353 | 34.77674 | 4090 ft | 184 kts | 356° |
| 2026-05-05 19:59 | 31.75512 | 34.77190 | 4092 ft | 178 kts | 320° |
| 2026-05-05 20:00 | 31.76330 | 34.76108 | 4095 ft | 176 kts | 304° |
| 2026-05-05 20:00 | 31.76994 | 34.74926 | 4095 ft | 174 kts | 294° |
| 2026-05-05 20:00 | 31.77248 | 34.73528 | 4090 ft | 178 kts | 276° |
| 2026-05-05 20:00 | 31.77178 | 34.72048 | 4089 ft | 186 kts | 261° |
| 2026-05-05 20:01 | 31.76812 | 34.70568 | 4099 ft | 193 kts | 249° |
| 2026-05-05 20:01 | 31.76162 | 34.69186 | 4096 ft | 189 kts | 242° |
| 2026-05-05 20:01 | 31.75298 | 34.68109 | 4087 ft | 183 kts | 212° |
| 2026-05-05 20:01 | 31.74022 | 34.67923 | 4088 ft | 197 kts | 171° |
| 2026-05-05 20:02 | 31.72808 | 34.68742 | 4090 ft | 209 kts | 134° |
| 2026-05-05 20:02 | 31.72209 | 34.70263 | 4083 ft | 207 kts | 96° |
| 2026-05-05 20:02 | 31.72469 | 34.71877 | 4086 ft | 201 kts | 59° |
| 2026-05-05 20:02 | 31.73454 | 34.72951 | 4091 ft | 191 kts | 20° |
| 2026-05-05 20:03 | 31.74713 | 34.73077 | 4087 ft | 183 kts | 342° |
| 2026-05-05 20:03 | 31.75742 | 34.72276 | 4090 ft | 178 kts | 311° |
| 2026-05-05 20:03 | 31.76410 | 34.71069 | 4098 ft | 177 kts | 292° |
| 2026-05-05 20:03 | 31.76653 | 34.69653 | 4090 ft | 178 kts | 271° |
| 2026-05-05 20:04 | 31.76207 | 34.68312 | 4084 ft | 182 kts | 231° |
| 2026-05-05 20:04 | 31.75081 | 34.67626 | 4083 ft | 191 kts | 191° |
| 2026-05-05 20:04 | 31.73779 | 34.67932 | 4086 ft | 197 kts | 152° |
| 2026-05-05 20:04 | 31.72882 | 34.69131 | 4090 ft | 199 kts | 113° |
| 2026-05-05 20:05 | 31.72776 | 34.70720 | 4089 ft | 197 kts | 73° |
| 2026-05-05 20:05 | 31.73477 | 34.72049 | 4092 ft | 190 kts | 41° |
| 2026-05-05 20:05 | 31.74377 | 34.73198 | 4092 ft | 193 kts | 49° |
| 2026-05-05 20:05 | 31.75153 | 34.74457 | 4089 ft | 191 kts | 45° |
| 2026-05-05 20:06 | 31.76279 | 34.75162 | 4090 ft | 183 kts | 4° |
| 2026-05-05 20:06 | 31.77461 | 34.74807 | 4092 ft | 176 kts | 323° |
| 2026-05-05 20:06 | 31.78119 | 34.73628 | 4089 ft | 176 kts | 284° |
| 2026-05-05 20:06 | 31.78336 | 34.72219 | 4097 ft | 174 kts | 279° |
| 2026-05-05 20:07 | 31.78325 | 34.70789 | 4092 ft | 175 kts | 267° |
| 2026-05-05 20:07 | 31.78377 | 34.69359 | 4097 ft | 176 kts | 279° |
| 2026-05-05 20:07 | 31.78584 | 34.67939 | 4088 ft | 176 kts | 276° |
| 2026-05-05 20:07 | 31.78543 | 34.66586 | 4093 ft | 175 kts | 268° |
| 2026-05-05 20:08 | 31.78542 | 34.65179 | 4092 ft | 163 kts | 273° |
| 2026-05-05 20:08 | 31.78554 | 34.63861 | 4093 ft | 158 kts | 271° |
| 2026-05-05 20:08 | 31.78549 | 34.62569 | 4091 ft | 158 kts | 271° |
| 2026-05-05 20:08 | 31.78545 | 34.61298 | 4086 ft | 153 kts | 271° |
| 2026-05-05 20:09 | 31.78539 | 34.60059 | 4086 ft | 151 kts | 271° |
| 2026-05-05 20:09 | 31.78569 | 34.58850 | 4086 ft | 145 kts | 272° |
| 2026-05-05 20:09 | 31.78188 | 34.57775 | 4081 ft | 149 kts | 226° |
| 2026-05-05 20:09 | 31.77207 | 34.57424 | 4081 ft | 155 kts | 175° |
| 2026-05-05 20:10 | 31.76179 | 34.57788 | 4081 ft | 164 kts | 171° |
| 2026-05-05 20:10 | 31.74886 | 34.57815 | 4089 ft | 204 kts | 182° |
| 2026-05-05 20:10 | 31.73435 | 34.57969 | 4096 ft | 215 kts | 173° |
| 2026-05-05 20:10 | 31.71993 | 34.58516 | 4103 ft | 223 kts | 156° |
| 2026-05-05 20:11 | 31.70595 | 34.59363 | 4102 ft | 229 kts | 150° |
| 2026-05-05 20:11 | 31.69267 | 34.60402 | 4099 ft | 230 kts | 147° |
| 2026-05-05 20:11 | 31.68047 | 34.61598 | 4104 ft | 230 kts | 131° |
| 2026-05-05 20:11 | 31.67040 | 34.63061 | 4101 ft | 232 kts | 130° |
| 2026-05-05 20:12 | 31.65970 | 34.64490 | 4096 ft | 233 kts | 129° |
| 2026-05-05 20:12 | 31.65159 | 34.66138 | 4103 ft | 233 kts | 112° |
| 2026-05-05 20:12 | 31.64597 | 34.67902 | 4104 ft | 234 kts | 109° |
| 2026-05-05 20:12 | 31.64201 | 34.69752 | 4102 ft | 234 kts | 98° |
| 2026-05-05 20:13 | 31.64016 | 34.71650 | 4104 ft | 234 kts | 92° |
| 2026-05-05 20:13 | 31.64036 | 34.73548 | 4109 ft | 232 kts | 81° |
| 2026-05-05 20:13 | 31.64290 | 34.75417 | 4108 ft | 233 kts | 78° |
| 2026-05-05 20:13 | 31.64673 | 34.77258 | 4101 ft | 232 kts | 69° |
| 2026-05-05 20:14 | 31.65243 | 34.79024 | 4104 ft | 231 kts | 65° |
| 2026-05-05 20:14 | 31.65972 | 34.80692 | 4109 ft | 230 kts | 57° |
| 2026-05-05 20:14 | 31.66880 | 34.82193 | 4103 ft | 227 kts | 45° |
| 2026-05-05 20:14 | 31.67974 | 34.83519 | 4101 ft | 225 kts | 40° |
| 2026-05-05 20:15 | 31.69250 | 34.84545 | 4102 ft | 221 kts | 24° |
| 2026-05-05 20:15 | 31.70628 | 34.85370 | 4103 ft | 222 kts | 24° |
| 2026-05-05 20:15 | 31.72051 | 34.86035 | 4099 ft | 219 kts | 12° |
| 2026-05-05 20:15 | 31.73528 | 34.86470 | 4102 ft | 219 kts | 11° |
| 2026-05-05 20:16 | 31.75016 | 34.86785 | 4097 ft | 216 kts | 359° |
| 2026-05-05 20:16 | 31.76519 | 34.86771 | 4099 ft | 216 kts | 356° |
| 2026-05-05 20:16 | 31.78007 | 34.86654 | 4101 ft | 213 kts | 347° |
| 2026-05-05 20:16 | 31.79453 | 34.86270 | 4100 ft | 214 kts | 345° |
| 2026-05-05 20:17 | 31.80877 | 34.85841 | 4101 ft | 212 kts | 339° |
| 2026-05-05 20:17 | 31.82255 | 34.85215 | 4101 ft | 211 kts | 333° |
| 2026-05-05 20:17 | 31.83496 | 34.84306 | 4096 ft | 211 kts | 324° |
| 2026-05-05 20:17 | 31.84678 | 34.83290 | 4098 ft | 210 kts | 316° |
| 2026-05-05 20:18 | 31.85574 | 34.81938 | 4097 ft | 209 kts | 303° |
| 2026-05-05 20:18 | 31.86415 | 34.80538 | 4093 ft | 210 kts | 306° |
| 2026-05-05 20:18 | 31.87229 | 34.79122 | 4094 ft | 209 kts | 297° |
| 2026-05-05 20:18 | 31.87838 | 34.77570 | 4094 ft | 209 kts | 293° |
| 2026-05-05 20:19 | 31.88249 | 34.75931 | 4095 ft | 210 kts | 284° |
| 2026-05-05 20:19 | 31.88521 | 34.74248 | 4090 ft | 210 kts | 276° |
| 2026-05-05 20:19 | 31.88605 | 34.72532 | 4087 ft | 210 kts | 271° |
| 2026-05-05 20:19 | 31.88423 | 34.70827 | 4094 ft | 210 kts | 262° |
| 2026-05-05 20:20 | 31.88114 | 34.69150 | 4093 ft | 210 kts | 256° |
| 2026-05-05 20:20 | 31.87644 | 34.67515 | 4094 ft | 212 kts | 248° |
| 2026-05-05 20:20 | 31.87193 | 34.66492 | 4089 ft | 213 kts | 243° |
| 2026-05-05 20:20 | 31.86081 | 34.64586 | 4087 ft | 215 kts | 232° |
| 2026-05-05 20:21 | 31.85118 | 34.63242 | 4086 ft | 215 kts | 233° |
| 2026-05-05 20:21 | 31.84164 | 34.61889 | 4085 ft | 215 kts | 229° |
| 2026-05-05 20:21 | 31.83429 | 34.61068 | 4086 ft | 216 kts | 225° |
| 2026-05-05 20:21 | 31.82239 | 34.59978 | 4087 ft | 217 kts | 217° |
| 2026-05-05 20:22 | 31.80909 | 34.59126 | 4086 ft | 220 kts | 203° |
| 2026-05-05 20:22 | 31.79462 | 34.58592 | 4088 ft | 220 kts | 200° |
| 2026-05-05 20:22 | 31.77995 | 34.58060 | 4085 ft | 221 kts | 197° |
| 2026-05-05 20:22 | 31.76470 | 34.57812 | 4084 ft | 223 kts | 185° |
| 2026-05-05 20:23 | 31.74913 | 34.57812 | 4083 ft | 223 kts | 178° |
| 2026-05-05 20:23 | 31.73366 | 34.58025 | 4083 ft | 224 kts | 174° |
| 2026-05-05 20:23 | 31.71869 | 34.58548 | 4089 ft | 226 kts | 158° |
| 2026-05-05 20:23 | 31.70466 | 34.59410 | 4085 ft | 230 kts | 148° |
| 2026-05-05 20:24 | 31.69156 | 34.60489 | 4083 ft | 230 kts | 146° |
| 2026-05-05 20:24 | 31.67974 | 34.61644 | 4082 ft | 230 kts | 134° |
| 2026-05-05 20:24 | 31.66950 | 34.63094 | 4087 ft | 231 kts | 129° |
| 2026-05-05 20:24 | 31.65927 | 34.64560 | 4088 ft | 232 kts | 128° |
| 2026-05-05 20:25 | 31.65147 | 34.66183 | 4090 ft | 232 kts | 112° |
| 2026-05-05 20:25 | 31.64578 | 34.67961 | 4092 ft | 232 kts | 109° |
| 2026-05-05 20:25 | 31.64193 | 34.69807 | 4085 ft | 232 kts | 98° |
| 2026-05-05 20:25 | 31.64015 | 34.71690 | 4086 ft | 232 kts | 92° |
| 2026-05-05 20:26 | 31.64039 | 34.73572 | 4091 ft | 230 kts | 81° |
| 2026-05-05 20:26 | 31.64292 | 34.75426 | 4095 ft | 230 kts | 79° |
| 2026-05-05 20:26 | 31.64670 | 34.77245 | 4089 ft | 229 kts | 69° |
| 2026-05-05 20:26 | 31.65233 | 34.78996 | 4091 ft | 228 kts | 65° |
| 2026-05-05 20:27 | 31.65950 | 34.80648 | 4096 ft | 227 kts | 57° |
| 2026-05-05 20:27 | 31.66839 | 34.82144 | 4093 ft | 224 kts | 45° |
| 2026-05-05 20:27 | 31.67917 | 34.83456 | 4097 ft | 223 kts | 41° |
| 2026-05-05 20:27 | 31.69175 | 34.84501 | 4088 ft | 221 kts | 24° |
| 2026-05-05 20:28 | 31.70540 | 34.85317 | 4090 ft | 220 kts | 24° |
| 2026-05-05 20:28 | 31.71940 | 34.86000 | 4090 ft | 216 kts | 12° |
| 2026-05-05 20:28 | 31.73397 | 34.86429 | 4094 ft | 216 kts | 11° |
| 2026-05-05 20:28 | 31.74861 | 34.86778 | 4091 ft | 214 kts | 1° |
| 2026-05-05 20:29 | 31.76342 | 34.86774 | 4090 ft | 213 kts | 356° |
| 2026-05-05 20:29 | 31.77815 | 34.86698 | 4089 ft | 211 kts | 348° |
| 2026-05-05 20:29 | 31.79247 | 34.86327 | 4092 ft | 211 kts | 344° |
| 2026-05-05 20:29 | 31.80674 | 34.85921 | 4093 ft | 210 kts | 340° |
| 2026-05-05 20:30 | 31.82044 | 34.85327 | 4094 ft | 209 kts | 335° |
| 2026-05-05 20:30 | 31.83283 | 34.84484 | 4093 ft | 208 kts | 324° |
| 2026-05-05 20:30 | 31.84476 | 34.83510 | 4091 ft | 208 kts | 319° |
| 2026-05-05 20:30 | 31.85418 | 34.82226 | 4089 ft | 208 kts | 303° |
| 2026-05-05 20:31 | 31.86236 | 34.80825 | 4091 ft | 208 kts | 306° |
| 2026-05-05 20:31 | 31.87082 | 34.79440 | 4092 ft | 208 kts | 300° |
| 2026-05-05 20:31 | 31.87712 | 34.77904 | 4092 ft | 208 kts | 294° |
| 2026-05-05 20:31 | 31.88175 | 34.76296 | 4093 ft | 208 kts | 284° |
| 2026-05-05 20:32 | 31.88486 | 34.74627 | 4092 ft | 209 kts | 278° |
| 2026-05-05 20:32 | 31.88600 | 34.72917 | 4089 ft | 209 kts | 274° |
| 2026-05-05 20:32 | 31.88469 | 34.71230 | 4088 ft | 211 kts | 259° |
| 2026-05-05 20:32 | 31.87976 | 34.69604 | 4146 ft | 211 kts | 246° |
| 2026-05-05 20:33 | 31.87181 | 34.68160 | 4240 ft | 211 kts | 233° |
| 2026-05-05 20:33 | 31.86127 | 34.66944 | 4293 ft | 215 kts | 221° |
| 2026-05-05 20:33 | 31.84877 | 34.65964 | 4343 ft | 217 kts | 213° |
| 2026-05-05 20:33 | 31.83531 | 34.65168 | 4503 ft | 215 kts | 207° |
| 2026-05-05 20:34 | 31.82140 | 34.64534 | 4645 ft | 214 kts | 202° |
| 2026-05-05 20:34 | 31.80715 | 34.63991 | 4733 ft | 216 kts | 199° |
| 2026-05-05 20:34 | 31.79251 | 34.63536 | 4805 ft | 219 kts | 196° |
| 2026-05-05 20:34 | 31.77781 | 34.63151 | 4901 ft | 218 kts | 195° |
| 2026-05-05 20:35 | 31.76293 | 34.62803 | 5007 ft | 217 kts | 193° |
| 2026-05-05 20:35 | 31.74792 | 34.62544 | 5062 ft | 219 kts | 189° |
| 2026-05-05 20:35 | 31.73249 | 34.62447 | 5058 ft | 224 kts | 184° |
| 2026-05-05 20:35 | 31.71707 | 34.62508 | 5110 ft | 224 kts | 178° |
| 2026-05-05 20:36 | 31.70159 | 34.62730 | 5206 ft | 224 kts | 173° |
| 2026-05-05 20:36 | 31.68634 | 34.63104 | 5274 ft | 225 kts | 168° |
| 2026-05-05 20:36 | 31.67120 | 34.63629 | 5314 ft | 228 kts | 165° |
| 2026-05-05 20:36 | 31.65628 | 34.64270 | 5371 ft | 228 kts | 161° |
| 2026-05-05 20:37 | 31.64173 | 34.65008 | 5458 ft | 228 kts | 158° |
| 2026-05-05 20:37 | 31.62747 | 34.65833 | 5535 ft | 229 kts | 155° |
| 2026-05-05 20:37 | 31.61352 | 34.66751 | 5572 ft | 231 kts | 152° |
| 2026-05-05 20:37 | 31.59994 | 34.67775 | 5606 ft | 233 kts | 148° |
| 2026-05-05 20:38 | 31.58701 | 34.68889 | 5664 ft | 233 kts | 144° |
| 2026-05-05 20:38 | 31.57452 | 34.70103 | 5738 ft | 233 kts | 141° |
| 2026-05-05 20:38 | 31.56260 | 34.71399 | 5793 ft | 234 kts | 137° |
| 2026-05-05 20:38 | 31.55128 | 34.72783 | 5836 ft | 236 kts | 134° |
| 2026-05-05 20:39 | 31.54080 | 34.74265 | 5890 ft | 237 kts | 129° |
| 2026-05-05 20:39 | 31.53118 | 34.75838 | 5941 ft | 237 kts | 124° |
| 2026-05-05 20:39 | 31.52270 | 34.77498 | 5975 ft | 238 kts | 119° |
| 2026-05-05 20:39 | 31.51537 | 34.79246 | 5994 ft | 239 kts | 114° |
| 2026-05-05 20:40 | 31.50928 | 34.81062 | 6035 ft | 239 kts | 109° |
| 2026-05-05 20:40 | 31.50445 | 34.82932 | 6064 ft | 240 kts | 104° |
| 2026-05-05 20:40 | 31.50086 | 34.84840 | 6080 ft | 240 kts | 99° |
| 2026-05-05 20:40 | 31.49854 | 34.86759 | 6094 ft | 241 kts | 95° |
| 2026-05-05 20:41 | 31.49762 | 34.88710 | 6151 ft | 239 kts | 89° |
| 2026-05-05 20:41 | 31.49818 | 34.90652 | 6199 ft | 238 kts | 84° |
| 2026-05-05 20:41 | 31.50017 | 34.92572 | 6215 ft | 238 kts | 78° |
| 2026-05-05 20:41 | 31.50357 | 34.94469 | 6226 ft | 237 kts | 73° |
| 2026-05-05 20:42 | 31.50833 | 34.96321 | 6275 ft | 236 kts | 68° |
| 2026-05-05 20:42 | 31.51436 | 34.98107 | 6330 ft | 235 kts | 63° |
| 2026-05-05 20:42 | 31.52150 | 34.99831 | 6352 ft | 235 kts | 59° |
| 2026-05-05 20:42 | 31.52938 | 35.01505 | 6400 ft | 234 kts | 57° |
| 2026-05-05 20:43 | 31.53780 | 35.03135 | 6458 ft | 233 kts | 54° |
| 2026-05-05 20:43 | 31.54656 | 35.04697 | 6489 ft | 233 kts | 53° |
| 2026-05-05 20:43 | 31.55580 | 35.06263 | 6474 ft | 235 kts | 52° |